createdAt,value
2018-07-14T00:02:25.479Z,81.20
2018-07-14T00:04:54.059Z,81.40
2018-07-14T00:07:22.684Z,81.50
2018-07-14T00:09:51.477Z,81.80
2018-07-14T00:12:20.769Z,81.90
2018-07-14T00:14:49.516Z,81.90
2018-07-14T00:17:18.157Z,81.80
2018-07-14T00:19:47.576Z,82.00
2018-07-14T00:22:16.818Z,82.00
2018-07-14T00:24:45.444Z,82.10
2018-07-14T00:27:16.439Z,82.30
2018-07-14T00:29:47.557Z,82.30
2018-07-14T00:32:17.363Z,82.70
2018-07-14T00:34:45.975Z,82.70
2018-07-14T00:37:16.821Z,82.70
2018-07-14T00:39:45.472Z,82.80
2018-07-14T00:42:14.792Z,83.10
2018-07-14T00:44:43.412Z,83.30
2018-07-14T00:47:12.005Z,83.50
2018-07-14T00:49:41.682Z,83.50
2018-07-14T00:52:10.340Z,83.60
2018-07-14T00:54:38.971Z,83.80
2018-07-14T00:57:07.741Z,83.90
2018-07-14T00:59:36.561Z,84.20
2018-07-14T01:02:05.229Z,84.30
2018-07-14T01:04:33.827Z,84.60
2018-07-14T01:07:02.421Z,84.80
2018-07-14T01:09:31.058Z,84.90
2018-07-14T01:11:59.689Z,85.00
2018-07-14T01:14:29.272Z,85.30
2018-07-14T01:16:57.918Z,85.70
2018-07-14T01:19:26.805Z,86.00
2018-07-14T01:21:55.497Z,85.80
2018-07-14T01:24:25.006Z,86.00
2018-07-14T01:26:53.604Z,86.20
2018-07-14T01:29:22.205Z,86.10
2018-07-14T01:31:50.839Z,86.00
2018-07-14T01:34:19.446Z,86.00
2018-07-14T01:36:48.039Z,86.00
2018-07-14T01:39:16.957Z,86.00
2018-07-14T01:41:45.565Z,86.10
2018-07-14T01:44:14.241Z,86.40
2018-07-14T01:46:42.840Z,86.30
2018-07-14T01:49:12.208Z,86.30
2018-07-14T01:51:40.853Z,86.30
2018-07-14T01:54:09.584Z,86.20
2018-07-14T01:56:38.184Z,86.30
2018-07-14T01:59:06.874Z,86.20
2018-07-14T02:01:35.828Z,86.30
2018-07-14T02:04:05.190Z,86.60
2018-07-14T02:06:33.811Z,86.50
2018-07-14T02:09:02.381Z,86.60
2018-07-14T02:11:31.039Z,86.70
2018-07-14T02:13:59.869Z,86.80
2018-07-14T02:16:28.507Z,87.20
2018-07-14T02:18:57.106Z,87.10
2018-07-14T02:21:26.063Z,87.20
2018-07-14T02:26:23.484Z,87.50
2018-07-14T02:28:52.729Z,87.50
2018-07-14T02:31:21.376Z,87.70
2018-07-14T02:33:50.590Z,87.60
2018-07-14T02:36:19.189Z,87.70
2018-07-14T02:38:47.792Z,87.50
2018-07-14T02:41:17.128Z,87.80
2018-07-14T02:43:46.050Z,87.80
2018-07-14T02:46:14.738Z,88.30
2018-07-14T02:48:43.368Z,88.30
2018-07-14T02:51:12.092Z,88.60
2018-07-14T02:53:40.709Z,88.80
2018-07-14T02:56:09.342Z,88.80
2018-07-14T02:58:38.517Z,89.00
2018-07-14T03:01:07.734Z,89.10
2018-07-14T03:03:36.350Z,89.00
2018-07-14T03:06:05.739Z,89.30
2018-07-14T03:08:34.351Z,90.10
2018-07-14T03:11:03.536Z,89.40
2018-07-14T03:13:34.144Z,89.80
2018-07-14T03:16:02.878Z,90.00
2018-07-14T03:18:31.472Z,90.10
2018-07-14T03:21:00.063Z,90.00
2018-07-14T03:23:30.245Z,90.00
2018-07-14T03:25:58.868Z,90.30
2018-07-14T03:28:27.473Z,90.20
2018-07-14T03:30:56.096Z,90.20
2018-07-14T03:33:24.721Z,90.10
2018-07-14T03:35:53.305Z,90.30
2018-07-14T03:38:21.978Z,90.20
2018-07-14T03:40:50.637Z,90.40
2018-07-14T03:43:19.296Z,90.30
2018-07-14T03:45:47.904Z,90.30
2018-07-14T03:48:16.500Z,90.30
2018-07-14T03:50:45.576Z,90.30
2018-07-14T03:53:14.165Z,90.20
2018-07-14T03:55:43.392Z,90.30
2018-07-14T03:58:12.053Z,90.40
2018-07-14T04:00:40.629Z,90.40
2018-07-14T04:03:09.270Z,90.50
2018-07-14T04:05:37.893Z,90.60
2018-07-14T04:08:07.128Z,90.50
2018-07-14T04:10:35.796Z,90.80
2018-07-14T04:13:04.420Z,90.60
2018-07-14T04:15:33.026Z,90.50
2018-07-14T04:18:04.389Z,90.60
2018-07-14T04:20:34.398Z,90.60
2018-07-14T04:23:02.983Z,90.60
2018-07-14T04:25:32.281Z,90.60
2018-07-14T04:28:01.597Z,90.80
2018-07-14T04:30:30.310Z,90.80
2018-07-14T04:32:58.961Z,90.80
2018-07-14T04:35:27.609Z,90.80
2018-07-14T04:37:56.191Z,90.80
2018-07-14T04:40:24.779Z,90.80
2018-07-14T04:42:53.392Z,91.00
2018-07-14T04:45:23.141Z,91.00
2018-07-14T04:47:51.784Z,91.00
2018-07-14T04:50:20.412Z,91.00
2018-07-14T04:52:49.112Z,90.90
2018-07-14T04:55:17.736Z,91.10
2018-07-14T04:57:46.328Z,91.20
2018-07-14T05:00:14.936Z,91.10
2018-07-14T05:02:43.533Z,91.30
2018-07-14T05:05:12.150Z,91.30
2018-07-14T05:07:41.697Z,91.30
2018-07-14T05:10:10.541Z,91.20
2018-07-14T05:12:39.189Z,91.00
2018-07-14T05:15:08.591Z,91.10
2018-07-14T05:17:37.292Z,91.10
2018-07-14T05:20:06.220Z,91.20
2018-07-14T05:22:34.841Z,91.00
2018-07-14T05:25:04.148Z,90.90
2018-07-14T05:27:32.756Z,90.80
2018-07-14T05:30:01.792Z,90.70
2018-07-14T05:32:30.414Z,90.90
2018-07-14T05:34:59.049Z,90.80
2018-07-14T05:37:27.654Z,90.70
2018-07-14T05:39:56.250Z,91.00
2018-07-14T05:42:24.860Z,90.80
2018-07-14T05:44:53.498Z,90.60
2018-07-14T05:47:22.122Z,90.90
2018-07-14T05:49:50.702Z,90.70
2018-07-14T05:52:19.333Z,90.60
2018-07-14T05:54:47.953Z,90.50
2018-07-14T05:57:16.586Z,90.10
2018-07-14T05:59:45.268Z,90.20
2018-07-14T06:02:13.995Z,90.30
2018-07-14T06:04:42.713Z,90.10
2018-07-14T06:07:11.335Z,90.30
2018-07-14T06:09:40.075Z,90.10
2018-07-14T06:12:08.819Z,90.30
2018-07-14T06:14:38.307Z,90.10
2018-07-14T06:17:06.915Z,90.10
2018-07-14T06:19:35.731Z,89.80
2018-07-14T06:22:05.185Z,90.20
2018-07-14T06:24:33.879Z,89.60
2018-07-14T06:27:02.903Z,89.70
2018-07-14T06:29:31.509Z,89.20
2018-07-14T06:32:00.737Z,89.10
2018-07-14T06:34:29.304Z,89.00
2018-07-14T06:36:57.912Z,89.20
2018-07-14T06:39:26.532Z,88.90
2018-07-14T06:41:55.194Z,89.00
2018-07-14T06:44:23.793Z,89.30
2018-07-14T06:46:52.412Z,88.90
2018-07-14T06:49:20.996Z,88.20
2018-07-14T06:51:49.617Z,88.40
2018-07-14T06:54:18.495Z,87.20
2018-07-14T06:56:47.115Z,87.60
2018-07-14T06:59:15.705Z,87.30
2018-07-14T07:01:44.392Z,86.80
2018-07-14T07:04:13.128Z,87.90
2018-07-14T07:06:41.735Z,87.00
2018-07-14T07:09:10.924Z,86.30
2018-07-14T07:11:39.573Z,87.10
2018-07-14T07:14:08.225Z,87.20
2018-07-14T07:16:37.558Z,86.40
2018-07-14T07:19:06.208Z,85.60
2018-07-14T07:21:34.806Z,85.50
2018-07-14T07:24:03.603Z,85.30
2018-07-14T07:26:32.219Z,84.60
2018-07-14T07:29:00.791Z,84.50
2018-07-14T07:31:29.403Z,85.00
2018-07-14T07:33:58.172Z,85.10
2018-07-14T07:36:26.867Z,84.20
2018-07-14T07:38:55.472Z,84.00
2018-07-14T07:41:24.246Z,83.90
2018-07-14T07:43:52.864Z,83.20
2018-07-14T07:46:21.442Z,83.20
2018-07-14T07:48:50.059Z,83.40
2018-07-14T07:51:19.588Z,82.60
2018-07-14T07:53:48.145Z,81.30
2018-07-14T07:56:16.787Z,81.10
2018-07-14T07:58:45.626Z,80.70
2018-07-14T08:01:16.160Z,80.80
2018-07-14T08:03:44.862Z,80.20
2018-07-14T08:06:13.991Z,79.80
2018-07-14T08:08:42.616Z,79.70
2018-07-14T08:11:11.190Z,79.10
2018-07-14T08:16:08.187Z,77.60
2018-07-14T08:18:36.817Z,79.30
2018-07-14T08:21:05.445Z,77.50
2018-07-14T08:23:34.045Z,77.90
2018-07-14T08:28:31.222Z,76.50
2018-07-14T08:30:59.845Z,77.00
2018-07-14T08:33:28.498Z,75.10
2018-07-14T08:35:57.726Z,75.70
2018-07-14T08:38:26.374Z,76.40
2018-07-14T08:40:54.989Z,75.20
2018-07-14T08:43:23.600Z,74.30
2018-07-14T08:45:52.657Z,73.80
2018-07-14T08:48:21.800Z,74.00
2018-07-14T08:50:50.440Z,72.50
2018-07-14T08:55:47.299Z,72.50
2018-07-14T08:58:15.929Z,71.90
2018-07-14T09:00:45.247Z,71.20
2018-07-14T09:03:13.848Z,71.20
2018-07-14T09:05:42.487Z,69.00
2018-07-14T09:08:11.873Z,69.70
2018-07-14T09:10:40.748Z,70.60
2018-07-14T09:13:09.341Z,67.80
2018-07-14T09:15:38.033Z,67.60
2018-07-14T09:18:06.633Z,68.90
2018-07-14T09:20:35.233Z,67.40
2018-07-14T09:23:03.812Z,67.20
2018-07-14T09:25:32.424Z,64.40
2018-07-14T09:28:01.820Z,65.80
2018-07-14T09:30:30.423Z,65.40
2018-07-14T09:32:59.096Z,63.70
2018-07-14T09:35:28.211Z,64.80
2018-07-14T09:37:57.135Z,63.00
2018-07-14T09:40:26.864Z,62.70
2018-07-14T09:42:55.484Z,60.30
2018-07-14T09:45:24.123Z,59.20
2018-07-14T09:47:52.777Z,62.50
2018-07-14T09:50:21.329Z,61.80
2018-07-14T09:52:50.807Z,59.40
2018-07-14T09:55:19.542Z,61.20
2018-07-14T09:57:48.764Z,60.50
2018-07-14T10:00:22.764Z,59.40
2018-07-14T10:02:51.344Z,60.20
2018-07-14T10:05:20.616Z,61.70
2018-07-14T10:07:49.462Z,57.80
2018-07-14T10:10:18.122Z,55.90
2018-07-14T10:12:47.057Z,60.30
2018-07-14T10:15:15.648Z,61.00
2018-07-14T10:17:44.327Z,58.10
2018-07-14T10:20:12.875Z,56.70
2018-07-14T10:22:41.549Z,55.30
2018-07-14T10:25:11.174Z,55.00
2018-07-14T10:27:39.800Z,53.40
2018-07-14T10:30:08.906Z,54.60
2018-07-14T10:32:37.648Z,55.20
2018-07-14T10:35:06.577Z,54.10
2018-07-14T10:37:35.307Z,55.10
2018-07-14T10:40:04.837Z,54.70
2018-07-14T10:42:33.503Z,52.20
2018-07-14T10:45:02.086Z,53.10
2018-07-14T10:47:30.833Z,51.50
2018-07-14T10:49:59.434Z,54.40
2018-07-14T10:52:28.066Z,56.50
2018-07-14T10:54:56.964Z,52.70
2018-07-14T10:57:26.261Z,52.70
2018-07-14T10:59:54.850Z,54.30
2018-07-14T11:02:23.478Z,53.00
2018-07-14T11:04:52.433Z,49.40
2018-07-14T11:07:21.090Z,50.50
2018-07-14T11:09:50.301Z,50.00
2018-07-14T11:12:21.161Z,49.50
2018-07-14T11:14:49.805Z,51.50
2018-07-14T11:17:18.455Z,52.30
2018-07-14T11:19:47.635Z,50.90
2018-07-14T11:22:17.126Z,51.90
2018-07-14T11:24:45.763Z,52.40
2018-07-14T11:27:14.457Z,50.90
2018-07-14T11:29:43.297Z,49.00
2018-07-14T11:32:12.282Z,49.70
2018-07-14T11:37:11.135Z,49.70
2018-07-14T11:39:39.828Z,46.30
2018-07-14T11:42:09.177Z,48.80
2018-07-14T11:44:40.637Z,47.40
2018-07-14T11:47:10.502Z,46.20
2018-07-14T11:49:39.478Z,47.30
2018-07-14T11:52:08.272Z,48.80
2018-07-14T11:54:36.905Z,47.10
2018-07-14T11:57:05.512Z,46.70
2018-07-14T11:59:35.369Z,43.80
2018-07-14T12:02:05.036Z,46.00
2018-07-14T12:04:33.607Z,44.20
2018-07-14T12:07:02.273Z,44.00
2018-07-14T12:09:30.921Z,46.40
2018-07-14T12:12:01.522Z,47.70
2018-07-14T12:14:30.504Z,45.30
2018-07-14T12:16:59.146Z,47.90
2018-07-14T12:19:27.814Z,50.00
2018-07-14T12:21:56.455Z,47.90
2018-07-14T12:24:25.047Z,48.50
2018-07-14T12:26:56.647Z,48.80
2018-07-14T12:29:25.363Z,48.60
2018-07-14T12:31:54.720Z,46.00
2018-07-14T12:34:23.403Z,47.60
2018-07-14T12:36:53.518Z,50.90
2018-07-14T12:39:22.118Z,52.60
2018-07-14T12:41:50.770Z,48.00
2018-07-14T12:44:19.376Z,44.80
2018-07-14T12:46:49.177Z,46.70
2018-07-14T12:49:17.804Z,47.30
2018-07-14T12:51:46.434Z,46.90
2018-07-14T12:54:15.037Z,47.50
2018-07-14T12:56:43.625Z,47.40
2018-07-14T12:59:12.227Z,45.00
2018-07-14T13:01:40.841Z,42.80
2018-07-14T13:04:09.467Z,43.20
2018-07-14T13:06:38.242Z,42.90
2018-07-14T13:09:07.052Z,43.40
2018-07-14T13:11:36.354Z,42.00
2018-07-14T13:14:05.704Z,41.90
2018-07-14T13:16:34.852Z,41.10
2018-07-14T13:19:03.587Z,38.90
2018-07-14T13:21:32.308Z,41.70
2018-07-14T13:24:01.108Z,41.70
2018-07-14T13:26:29.959Z,39.10
2018-07-14T13:28:58.666Z,43.40
2018-07-14T13:31:27.333Z,39.90
2018-07-14T13:33:55.992Z,41.60
2018-07-14T13:36:24.764Z,40.80
2018-07-14T13:38:53.551Z,41.00
2018-07-14T13:41:22.351Z,40.40
2018-07-14T13:43:51.367Z,37.60
2018-07-14T13:46:21.435Z,37.20
2018-07-14T13:48:50.617Z,37.90
2018-07-14T13:51:19.290Z,37.10
2018-07-14T13:53:47.953Z,39.80
2018-07-14T13:56:16.874Z,39.00
2018-07-14T13:58:45.555Z,39.30
2018-07-14T14:01:14.784Z,38.70
2018-07-14T14:03:43.415Z,37.80
2018-07-14T14:06:12.011Z,37.90
2018-07-14T14:08:42.080Z,38.80
2018-07-14T14:11:10.823Z,39.70
2018-07-14T14:13:40.094Z,40.50
2018-07-14T14:16:10.105Z,37.70
2018-07-14T14:18:38.718Z,37.60
2018-07-14T14:21:08.223Z,38.60
2018-07-14T14:23:37.716Z,39.70
2018-07-14T14:26:06.288Z,38.30
2018-07-14T14:28:34.910Z,38.30
2018-07-14T14:31:03.676Z,40.50
2018-07-14T14:33:32.831Z,37.60
2018-07-14T14:36:01.457Z,39.00
2018-07-14T14:38:30.075Z,39.00
2018-07-14T14:40:58.774Z,37.30
2018-07-14T14:43:27.573Z,39.80
2018-07-14T14:45:56.323Z,38.60
2018-07-14T14:48:24.958Z,35.90
2018-07-14T14:50:53.595Z,37.60
2018-07-14T14:55:50.485Z,38.50
2018-07-14T14:58:19.134Z,39.00
2018-07-14T15:00:47.747Z,37.30
2018-07-14T15:03:16.344Z,36.70
2018-07-14T15:05:45.173Z,35.70
2018-07-14T15:08:13.771Z,35.40
2018-07-14T15:10:42.435Z,35.90
2018-07-14T15:13:11.062Z,36.10
2018-07-14T15:15:40.438Z,37.90
2018-07-14T15:18:09.050Z,37.70
2018-07-14T15:20:38.245Z,36.40
2018-07-14T15:23:06.849Z,34.50
2018-07-14T15:25:35.480Z,37.80
2018-07-14T15:28:04.124Z,39.60
2018-07-14T15:30:32.748Z,35.90
2018-07-14T15:33:01.587Z,38.70
2018-07-14T15:35:31.007Z,37.70
2018-07-14T15:37:59.616Z,38.40
2018-07-14T15:42:56.523Z,38.80
2018-07-14T15:45:25.137Z,38.30
2018-07-14T15:47:54.447Z,35.40
2018-07-14T15:50:23.116Z,35.50
2018-07-14T15:52:51.694Z,36.00
2018-07-14T15:55:20.989Z,36.00
2018-07-14T15:57:49.733Z,37.50
2018-07-14T16:00:18.409Z,38.40
2018-07-14T16:02:46.928Z,39.40
2018-07-14T16:05:15.546Z,37.70
2018-07-14T16:07:44.913Z,37.80
2018-07-14T16:10:13.515Z,39.10
2018-07-14T16:12:42.195Z,38.90
2018-07-14T16:15:11.418Z,39.00
2018-07-14T16:17:40.008Z,38.00
2018-07-14T16:20:08.693Z,35.80
2018-07-14T16:22:37.279Z,36.20
2018-07-14T16:25:05.941Z,35.30
2018-07-14T16:27:34.651Z,36.90
2018-07-14T16:32:31.803Z,37.50
2018-07-14T16:35:00.521Z,37.00
2018-07-14T16:37:29.304Z,38.50
2018-07-14T16:39:58.580Z,40.10
2018-07-14T16:42:27.202Z,39.20
2018-07-14T16:44:55.862Z,39.20
2018-07-14T16:47:24.681Z,36.70
2018-07-14T16:49:53.329Z,36.70
2018-07-14T16:52:21.968Z,37.70
2018-07-14T16:54:50.610Z,38.50
2018-07-14T16:57:19.234Z,38.30
2018-07-14T16:59:47.937Z,38.90
2018-07-14T17:02:16.520Z,39.40
2018-07-14T17:04:45.153Z,40.40
2018-07-14T17:07:13.847Z,40.60
2018-07-14T17:09:42.420Z,40.40
2018-07-14T17:12:11.001Z,40.10
2018-07-14T17:14:40.221Z,40.00
2018-07-14T17:17:08.852Z,39.90
2018-07-14T17:19:38.273Z,40.60
2018-07-14T17:22:06.986Z,40.00
2018-07-14T17:24:35.599Z,39.60
2018-07-14T17:27:04.200Z,40.80
2018-07-14T17:29:32.791Z,41.40
2018-07-14T17:32:02.157Z,40.90
2018-07-14T17:34:31.203Z,42.00
2018-07-14T17:37:00.470Z,42.60
2018-07-14T17:39:29.929Z,43.00
2018-07-14T17:41:58.553Z,41.90
2018-07-14T17:44:28.054Z,41.90
2018-07-14T17:46:57.446Z,41.90
2018-07-14T17:49:26.071Z,42.90
2018-07-14T17:51:54.725Z,42.00
2018-07-14T17:56:51.618Z,42.40
2018-07-14T17:59:20.303Z,43.10
2018-07-14T18:01:48.896Z,43.40
2018-07-14T18:04:17.699Z,43.00
2018-07-14T18:06:46.993Z,43.70
2018-07-14T18:09:15.695Z,43.60
2018-07-14T18:11:44.813Z,43.70
2018-07-14T18:14:13.704Z,43.90
2018-07-14T18:16:42.296Z,44.40
2018-07-14T18:19:12.264Z,44.70
2018-07-14T18:21:41.138Z,45.20
2018-07-14T18:24:10.067Z,45.10
2018-07-14T18:26:38.756Z,45.20
2018-07-14T18:29:07.423Z,45.60
2018-07-14T18:31:36.113Z,46.00
2018-07-14T18:34:04.807Z,46.20
2018-07-14T18:36:33.650Z,47.00
2018-07-14T18:39:02.750Z,46.10
2018-07-14T18:41:31.596Z,46.30
2018-07-14T18:44:00.609Z,46.90
2018-07-14T18:46:29.228Z,47.30
2018-07-14T18:48:57.915Z,47.20
2018-07-14T18:51:28.186Z,47.60
2018-07-14T18:53:58.030Z,47.70
2018-07-14T18:56:27.401Z,47.70
2018-07-14T18:58:56.135Z,47.90
2018-07-14T19:01:24.786Z,48.00
2018-07-14T19:03:53.442Z,48.00
2018-07-14T19:06:22.216Z,48.40
2018-07-14T19:08:51.489Z,48.90
2018-07-14T19:11:20.054Z,48.50
2018-07-14T19:13:48.776Z,48.70
2018-07-14T19:16:17.486Z,49.00
2018-07-14T19:18:46.337Z,49.10
2018-07-14T19:21:14.913Z,49.70
2018-07-14T19:23:43.520Z,50.20
2018-07-14T19:26:12.201Z,50.00
2018-07-14T19:28:40.757Z,50.40
2018-07-14T19:31:09.343Z,50.80
2018-07-14T19:33:37.962Z,50.80
2018-07-14T19:36:06.649Z,50.90
2018-07-14T19:38:35.356Z,51.20
2018-07-14T19:41:03.984Z,51.20
2018-07-14T19:43:33.201Z,51.60
2018-07-14T19:46:02.510Z,51.90
2018-07-14T19:48:31.097Z,51.30
2018-07-14T19:50:59.721Z,51.80
2018-07-14T19:55:49.607Z,52.30
2018-07-14T19:58:19.168Z,52.40
2018-07-14T20:00:47.865Z,53.40
2018-07-14T20:03:16.452Z,53.70
2018-07-14T20:05:45.869Z,53.90
2018-07-14T20:08:14.465Z,53.90
2018-07-14T20:10:44.021Z,54.60
2018-07-14T20:13:12.698Z,54.40
2018-07-14T20:18:10.310Z,55.40
2018-07-14T20:20:39.600Z,55.80
2018-07-14T20:23:08.182Z,56.30
2018-07-14T20:25:37.402Z,56.30
2018-07-14T20:28:06.913Z,56.40
2018-07-14T20:30:36.091Z,56.80
2018-07-14T20:35:32.990Z,56.90
2018-07-14T20:38:02.090Z,57.00
2018-07-14T20:40:30.917Z,57.20
2018-07-14T20:42:59.488Z,58.00
2018-07-14T20:45:28.102Z,58.30
2018-07-14T20:47:56.672Z,58.10
2018-07-14T20:50:25.294Z,58.40
2018-07-14T20:52:54.048Z,58.70
2018-07-14T20:55:23.327Z,59.40
2018-07-14T20:57:52.090Z,59.10
2018-07-14T21:00:20.737Z,59.30
2018-07-14T21:02:49.508Z,59.60
2018-07-14T21:05:18.104Z,59.80
2018-07-14T21:07:47.368Z,60.00
2018-07-14T21:10:16.020Z,60.10
2018-07-14T21:12:44.677Z,60.30
2018-07-14T21:15:13.410Z,60.50
2018-07-14T21:17:42.103Z,60.80
2018-07-14T21:20:10.748Z,61.30
2018-07-14T21:22:39.368Z,61.70
2018-07-14T21:25:08.000Z,61.80
2018-07-14T21:27:36.717Z,61.80
2018-07-14T21:30:05.425Z,62.60
2018-07-14T21:32:34.024Z,62.90
2018-07-14T21:35:02.641Z,62.90
2018-07-14T21:37:31.269Z,63.30
2018-07-14T21:40:00.078Z,63.60
2018-07-14T21:42:28.681Z,63.70
2018-07-14T21:44:57.269Z,64.10
2018-07-14T21:47:25.866Z,64.50
2018-07-14T21:49:54.441Z,64.90
2018-07-14T21:52:23.060Z,65.00
2018-07-14T21:54:51.667Z,65.20
2018-07-14T21:57:20.283Z,65.10
2018-07-14T21:59:48.879Z,66.00
2018-07-14T22:02:17.641Z,66.00
2018-07-14T22:04:46.265Z,66.50
2018-07-14T22:07:14.911Z,66.80
2018-07-14T22:09:43.485Z,67.20
2018-07-14T22:12:13.011Z,68.40
2018-07-14T22:14:41.632Z,68.40
2018-07-14T22:17:10.221Z,68.40
2018-07-14T22:19:38.791Z,68.60
2018-07-14T22:22:07.881Z,68.70
2018-07-14T22:24:36.480Z,68.90
2018-07-14T22:27:05.671Z,69.40
2018-07-14T22:29:34.309Z,69.30
2018-07-14T22:32:02.960Z,69.40
2018-07-14T22:34:31.570Z,69.80
2018-07-14T22:37:00.776Z,69.80
2018-07-14T22:39:29.366Z,70.00
2018-07-14T22:41:58.410Z,70.10
2018-07-14T22:44:27.057Z,70.30
2018-07-14T22:46:55.720Z,70.50
2018-07-14T22:49:24.290Z,70.70
2018-07-14T22:51:52.858Z,70.70
2018-07-14T22:54:21.477Z,70.70
2018-07-14T22:56:50.372Z,70.90
2018-07-14T22:59:18.993Z,71.10
2018-07-14T23:01:47.607Z,71.20
2018-07-14T23:04:16.198Z,71.20
2018-07-14T23:06:44.789Z,71.40
2018-07-14T23:09:13.377Z,71.50
2018-07-14T23:11:42.537Z,71.70
2018-07-14T23:14:11.784Z,71.80
2018-07-14T23:16:40.389Z,71.90
2018-07-14T23:19:09.065Z,72.20
2018-07-14T23:21:37.691Z,72.30
2018-07-14T23:24:07.033Z,72.60
2018-07-14T23:26:35.969Z,72.70
2018-07-14T23:29:04.665Z,72.90
2018-07-14T23:31:33.258Z,73.00
2018-07-14T23:34:02.990Z,73.20
2018-07-14T23:36:31.618Z,73.40
2018-07-14T23:39:00.225Z,73.60
2018-07-14T23:41:28.817Z,73.50
2018-07-14T23:43:57.446Z,73.60
2018-07-14T23:46:26.057Z,73.60
2018-07-14T23:48:54.639Z,73.70
2018-07-14T23:51:23.243Z,73.70
2018-07-14T23:53:51.855Z,74.00
2018-07-14T23:56:20.487Z,74.50
2018-07-14T23:58:49.146Z,74.40
